Berezino, Belarus

8:04 AM MSK on September 03, 2015 (GMT +0300)
Minsk-2 | | Change Station
CLOSE
Current Station
Airport
Location: Minsk In-Min,
Elevation: 669 ft
Nearby Weather Stations

Elev 669 ft 53.88 °N, 28.03 °E | Updated 16 minutes ago

Light Rain Showers
Light Showers Rain
59 °F
Feels Like 59 °F
N
9
Wind Variable Wind from NW

Today
High -- | Low -- °F
--% Chance of Precip.
Yesterday
High -- | Low -- °F
Precip. -- in
6:15 AM 7:50 PM
Waning Gibbous, 74% visible
Pressure 29.89 in
Visibility -9999.0 miles
Clouds Overcast 700 ft
Dew Point 57 °F
Humidity 94%
Rainfall 0.00 in
Snow Depth Not available.
UV 0 out of 12
Pollen Not available.
Air Quality Not available.
Flu Activity Not available.
SPECI UMMS 030448Z 32004MPS 4800 -SHRA OVC007CB 15/14 Q1012 R31/290062 NOSIG
Pressure 29.89 in
Visibility -9999.0 miles
Clouds Overcast 700 ft
Dew Point 57 °F
Humidity 94%
Rainfall 0.00 in
Snow Depth Not available.
UV 0 out of 12
Pollen Not available.
Air Quality Not available.
Flu Activity Not available.
SPECI UMMS 030448Z 32004MPS 4800 -SHRA OVC007CB 15/14 Q1012 R31/290062 NOSIG

10-Day Weather Forecast

×

Almanac

Astronomy

Sep. 03, 2015 Rise Set
Actual Time
Civil Twilight
Nautical Twilight
Astronomical Twilight
Moon
Length of Visible Light
Length of Day
Tomorrow will be .
, % of the Moon is Illuminated

Today's Extremes

Country Highs Country Lows

Community

WunderPhotos

Upload Photos

1,851,914 photos uploaded!

WunderBlogs® & News

Nearby

Air Quality

  Air Quality AQ Index Pollutant
Not available.

Snow Depth

Station Depth Elevation

Earthquake Activity

City Distance Mag. Time & Date
Minimum magnitude displayed is 2.5.

Coastal Water Temperatures

Place Temperature

Stations

Nearby Weather Stations

Station Location Temp. Windchill Dew Point Humidity Wind Precip. Elev Updated Type